Time;durP1;ratioP1;P1;durP2;ratioP2;P2;SDS_P1;SDS_P2;PMS_P1;PMS_P2;Temp;Humidity;BMP_temperature;BMP_pressure;BME280_temperature;BME280_humidity;BME280_pressure;Samples;Min_cycle;Max_cycle;Signal;HPM_P1;HPM_P2
2023/05/25 00:00:55;;;;;;;1999.90;999.90;;;18.30;90.70;;;;;;5081640;28;20081;-71
2023/05/25 00:03:26;;;;;;;1999.90;999.90;;;18.40;90.70;;;;;;5081758;28;20058;-72
2023/05/25 00:05:54;;;;;;;1999.90;999.90;;;18.60;90.60;;;;;;5089274;28;20058;-72
2023/05/25 00:08:21;;;;;;;1999.90;999.90;;;18.60;90.90;;;;;;5090249;28;20024;-71
2023/05/25 00:10:48;;;;;;;1999.90;999.90;;;18.80;90.90;;;;;;5074473;28;20111;-70
2023/05/25 00:13:16;;;;;;;1999.90;999.90;;;19.00;90.00;;;;;;5080517;28;20423;-70
2023/05/25 00:15:43;;;;;;;1999.90;999.90;;;19.10;90.30;;;;;;5077820;28;20732;-71
2023/05/25 00:18:11;;;;;;;1999.90;999.90;;;19.20;90.50;;;;;;5084948;28;20020;-72
2023/05/25 00:20:39;;;;;;;1999.90;999.90;;;19.40;89.10;;;;;;5082309;28;20032;-75
2023/05/25 00:23:06;;;;;;;1999.90;999.90;;;19.40;89.50;;;;;;5083842;28;20035;-71
2023/05/25 00:25:33;;;;;;;1999.90;999.90;;;19.50;88.00;;;;;;5082842;28;20074;-71
2023/05/25 00:28:03;;;;;;;1999.90;999.90;;;19.40;89.00;;;;;;5092292;28;20040;-71
2023/05/25 00:30:33;;;;;;;1999.90;999.90;;;19.30;90.00;;;;;;5076011;28;20024;-72
2023/05/25 00:33:01;;;;;;;1999.90;999.90;;;19.20;88.50;;;;;;5086468;28;20044;-70
2023/05/25 00:35:29;;;;;;;1999.90;999.90;;;19.30;88.50;;;;;;5077671;28;20040;-70
2023/05/25 00:37:56;;;;;;;1999.90;999.90;;;19.40;88.50;;;;;;5081459;28;20032;-69
2023/05/25 00:40:24;;;;;;;1999.90;999.90;;;19.50;89.30;;;;;;5083878;28;20043;-69
2023/05/25 00:42:51;;;;;;;1999.90;999.90;;;19.50;89.90;;;;;;5081683;28;20090;-68
2023/05/25 00:45:19;;;;;;;1999.90;999.90;;;19.70;88.80;;;;;;5081664;28;20027;-71
2023/05/25 00:47:51;;;;;;;1999.90;999.90;;;19.70;87.90;;;;;;5080335;28;20028;-71
2023/05/25 00:50:22;;;;;;;1999.90;999.90;;;19.70;87.90;;;;;;5069436;28;20027;-70
2023/05/25 00:52:50;;;;;;;1999.90;999.90;;;19.40;87.80;;;;;;5090532;28;20032;-70
2023/05/25 00:55:21;;;;;;;1999.90;999.90;;;19.10;89.40;;;;;;5087721;28;20040;-70
2023/05/25 00:57:50;;;;;;;1999.90;999.90;;;18.80;89.60;;;;;;5097415;28;20564;-71
2023/05/25 01:00:20;;;;;;;1999.90;999.90;;;18.60;90.10;;;;;;5087511;28;20040;-71
2023/05/25 01:02:51;;;;;;;1999.90;999.90;;;18.50;90.30;;;;;;5089387;28;20505;-72
2023/05/25 01:05:20;;;;;;;1999.90;999.90;;;18.40;90.30;;;;;;5089173;28;20109;-71
2023/05/25 01:07:52;;;;;;;1999.90;999.90;;;18.40;90.50;;;;;;5086261;28;20045;-72
2023/05/25 01:10:24;;;;;;;1999.90;999.90;;;18.40;90.90;;;;;;5094103;28;20035;-73
2023/05/25 01:12:55;;;;;;;1999.90;999.90;;;18.30;91.30;;;;;;5093092;28;20062;-71
2023/05/25 01:15:23;;;;;;;1999.90;999.90;;;18.30;90.90;;;;;;5091694;28;20527;-71
2023/05/25 01:17:58;;;;;;;1999.90;999.90;;;18.20;91.10;;;;;;5088735;28;20061;-71
2023/05/25 01:20:31;;;;;;;1999.90;999.90;;;18.20;91.30;;;;;;5086765;28;20490;-70
2023/05/25 01:23:12;;;;;;;1999.90;999.90;;;18.20;91.50;;;;;;5095299;28;20287;-71
2023/05/25 01:25:53;;;;;;;1999.90;999.90;;;18.10;91.80;;;;;;5095466;28;20024;-70
2023/05/25 01:28:31;;;;;;;1999.90;999.90;;;18.10;91.70;;;;;;5088169;28;20020;-72
2023/05/25 01:30:59;;;;;;;1999.90;999.90;;;18.20;91.70;;;;;;5084385;28;20043;-72
2023/05/25 01:33:28;;;;;;;1999.90;999.90;;;18.30;92.10;;;;;;5088952;28;20127;-71
2023/05/25 01:35:56;;;;;;;1999.90;999.90;;;18.60;92.30;;;;;;5077126;28;20057;-72
2023/05/25 01:38:23;;;;;;;1999.90;999.90;;;18.80;91.70;;;;;;5084070;28;20024;-71
2023/05/25 01:40:50;;;;;;;1999.90;999.90;;;19.00;91.50;;;;;;5086972;28;20389;-72
2023/05/25 01:43:18;;;;;;;1999.90;999.90;;;19.20;91.20;;;;;;5082936;28;20470;-71
2023/05/25 01:45:46;;;;;;;1999.90;999.90;;;19.30;91.40;;;;;;5058035;28;20110;-72
2023/05/25 01:48:19;;;;;;;1999.90;999.90;;;19.40;91.20;;;;;;5087296;28;20016;-73
2023/05/25 01:51:04;;;;;;;1999.90;999.90;;;19.20;91.30;;;;;;5073077;28;20968;-72
2023/05/25 01:53:37;;;;;;;1999.90;999.90;;;19.00;91.70;;;;;;5084981;28;20110;-72
2023/05/25 01:56:07;;;;;;;1999.90;999.90;;;18.80;92.10;;;;;;5088147;28;20031;-71
2023/05/25 01:58:46;;;;;;;1999.90;999.90;;;18.80;92.80;;;;;;5086855;28;20429;-72
2023/05/25 02:01:17;;;;;;;1999.90;999.90;;;18.70;93.10;;;;;;5085449;28;20485;-72
2023/05/25 02:03:47;;;;;;;1999.90;999.90;;;18.60;93.00;;;;;;5084299;28;20055;-73
2023/05/25 02:06:16;;;;;;;1999.90;999.90;;;18.70;93.00;;;;;;5069094;28;20097;-72
2023/05/25 02:08:44;;;;;;;1999.90;999.90;;;18.60;92.70;;;;;;5077142;28;20031;-71
2023/05/25 02:11:19;;;;;;;1999.90;999.90;;;18.60;92.80;;;;;;5087171;28;20032;-72
2023/05/25 02:13:47;;;;;;;1999.90;999.90;;;18.60;92.80;;;;;;5089589;28;20037;-70
2023/05/25 02:16:14;;;;;;;1999.90;999.90;;;18.40;92.90;;;;;;5091867;28;20035;-71
2023/05/25 02:18:43;;;;;;;1999.90;999.90;;;18.40;93.20;;;;;;5090662;28;20035;-71
2023/05/25 02:21:11;;;;;;;1999.90;999.90;;;18.40;93.40;;;;;;5085114;28;20075;-72
2023/05/25 02:23:38;;;;;;;1999.90;999.90;;;18.40;93.50;;;;;;5088271;28;20081;-73
2023/05/25 02:26:06;;;;;;;1999.90;999.90;;;18.30;93.20;;;;;;5090075;28;20032;-72
2023/05/25 02:28:33;;;;;;;1999.90;999.90;;;18.30;93.20;;;;;;5092251;28;20452;-73
2023/05/25 02:31:00;;;;;;;1999.90;999.90;;;18.30;93.50;;;;;;5089330;28;20087;-72
2023/05/25 02:33:31;;;;;;;1999.90;999.90;;;18.30;93.60;;;;;;5083809;28;20138;-72
2023/05/25 02:35:58;;;;;;;1999.90;999.90;;;18.30;93.60;;;;;;5088036;28;20062;-71
2023/05/25 02:38:25;;;;;;;1999.90;999.90;;;18.20;93.70;;;;;;5085690;28;20024;-71
2023/05/25 02:40:53;;;;;;;1999.90;999.90;;;18.20;93.90;;;;;;5091352;28;20490;-71
2023/05/25 02:43:20;;;;;;;1999.90;999.90;;;18.10;94.00;;;;;;5083307;28;20024;-71
2023/05/25 02:45:48;;;;;;;1999.90;999.90;;;17.90;94.50;;;;;;5083115;28;20035;-71
2023/05/25 02:48:16;;;;;;;1999.90;999.90;;;17.80;94.50;;;;;;5082338;28;20071;-71
2023/05/25 02:50:43;;;;;;;1999.90;999.90;;;17.70;94.90;;;;;;5088388;28;20039;-72
2023/05/25 02:53:11;;;;;;;1999.90;999.90;;;17.60;95.30;;;;;;5088760;28;20029;-71
2023/05/25 02:55:39;;;;;;;1999.90;999.90;;;17.60;95.60;;;;;;5083298;28;20282;-71
2023/05/25 02:58:06;;;;;;;1999.90;999.90;;;17.50;95.90;;;;;;5085400;28;20024;-73
2023/05/25 03:00:34;;;;;;;1999.90;999.90;;;17.40;96.10;;;;;;5087102;28;20017;-71
2023/05/25 03:03:01;;;;;;;1999.90;999.90;;;17.40;96.30;;;;;;5092354;28;20402;-71
2023/05/25 03:05:28;;;;;;;1999.90;999.90;;;17.30;96.60;;;;;;5089085;28;20078;-72
2023/05/25 03:07:59;;;;;;;1999.90;999.90;;;17.30;96.80;;;;;;5088689;28;20081;-72
2023/05/25 03:10:27;;;;;;;1999.90;999.90;;;17.30;96.90;;;;;;5084043;28;20161;-71
2023/05/25 03:12:54;;;;;;;1999.90;999.90;;;17.30;97.10;;;;;;5083559;28;20485;-71
2023/05/25 03:15:22;;;;;;;1999.90;999.90;;;17.30;97.40;;;;;;5081305;28;20490;-72
2023/05/25 03:17:49;;;;;;;1999.90;999.90;;;17.20;97.30;;;;;;5080573;28;20103;-73
2023/05/25 03:20:17;;;;;;;1999.90;999.90;;;17.10;97.50;;;;;;5076413;28;20032;-71
2023/05/25 03:22:44;;;;;;;1999.90;999.90;;;17.20;97.70;;;;;;5082429;28;20170;-71
2023/05/25 03:25:12;;;;;;;1999.90;999.90;;;17.10;97.80;;;;;;5083250;28;20494;-72
2023/05/25 03:27:40;;;;;;;1999.90;999.90;;;17.20;97.70;;;;;;5088454;28;20073;-72
2023/05/25 03:30:11;;;;;;;1999.90;999.90;;;17.10;97.50;;;;;;5068646;28;20101;-72
2023/05/25 03:32:39;;;;;;;1999.90;999.90;;;17.20;97.70;;;;;;5090503;28;20501;-74
2023/05/25 03:35:07;;;;;;;1999.90;999.90;;;17.20;97.60;;;;;;5083200;28;20047;-72
2023/05/25 03:37:34;;;;;;;1999.90;999.90;;;17.30;97.60;;;;;;5084075;28;20020;-71
2023/05/25 03:40:02;;;;;;;1999.90;999.90;;;17.20;97.90;;;;;;5090648;28;20089;-72
2023/05/25 03:42:29;;;;;;;1999.90;999.90;;;17.30;97.90;;;;;;5080520;28;20530;-72
2023/05/25 03:44:57;;;;;;;1999.90;999.90;;;17.30;97.80;;;;;;5086438;28;20032;-72
2023/05/25 03:47:24;;;;;;;1999.90;999.90;;;17.30;97.80;;;;;;5093770;28;20032;-70
2023/05/25 03:49:51;;;;;;;1999.90;999.90;;;17.20;97.90;;;;;;5090471;28;20032;-71
2023/05/25 03:52:19;;;;;;;1999.90;999.90;;;17.30;97.60;;;;;;5095643;28;20057;-72
2023/05/25 03:54:46;;;;;;;1999.90;999.90;;;17.30;97.80;;;;;;5089977;28;20113;-72
2023/05/25 03:57:13;;;;;;;1999.90;999.90;;;17.30;98.00;;;;;;5086789;28;20031;-72
2023/05/25 03:59:40;;;;;;;1999.90;999.90;;;17.30;98.20;;;;;;5083684;28;20038;-71
2023/05/25 04:02:14;;;;;;;1999.90;999.90;;;17.30;98.10;;;;;;5086306;28;20175;-75
2023/05/25 04:04:42;;;;;;;1999.90;999.90;;;17.30;97.60;;;;;;5075500;28;20047;-71
2023/05/25 04:07:10;;;;;;;1999.90;999.90;;;17.30;97.60;;;;;;5086649;28;20402;-73
2023/05/25 04:09:37;;;;;;;1999.90;999.90;;;17.20;97.70;;;;;;5086660;28;20040;-71
2023/05/25 04:12:05;;;;;;;1999.90;999.90;;;17.20;97.80;;;;;;5084358;28;20415;-71
2023/05/25 04:14:32;;;;;;;1999.90;999.90;;;17.20;97.80;;;;;;5080590;28;20089;-71
2023/05/25 04:17:00;;;;;;;1999.90;999.90;;;17.20;97.40;;;;;;5078747;28;20028;-71
2023/05/25 04:19:27;;;;;;;1999.90;999.90;;;17.30;97.60;;;;;;5077125;28;20032;-72
2023/05/25 04:21:54;;;;;;;1999.90;999.90;;;17.30;97.40;;;;;;5088218;28;20516;-71
2023/05/25 04:24:22;;;;;;;1999.90;999.90;;;17.30;97.30;;;;;;5083697;28;20432;-70
2023/05/25 04:26:50;;;;;;;1999.90;999.90;;;17.30;97.10;;;;;;5063456;28;20027;-72
2023/05/25 04:29:17;;;;;;;1999.90;999.90;;;17.40;97.00;;;;;;5087860;28;20446;-72
2023/05/25 04:31:46;;;;;;;1999.90;999.90;;;17.50;96.80;;;;;;5090574;28;20031;-71
2023/05/25 04:34:13;;;;;;;1999.90;999.90;;;17.60;96.90;;;;;;5083556;28;20036;-70
2023/05/25 04:36:43;;;;;;;1999.90;999.90;;;17.60;96.90;;;;;;5089131;28;20915;-70
2023/05/25 04:39:11;;;;;;;1999.90;999.90;;;17.70;96.70;;;;;;5080677;28;20521;-70
2023/05/25 04:41:39;;;;;;;1999.90;999.90;;;17.80;96.20;;;;;;5082283;28;20123;-71
2023/05/25 04:44:06;;;;;;;1999.90;999.90;;;17.90;96.10;;;;;;5085517;28;20054;-71
2023/05/25 04:46:37;;;;;;;1999.90;999.90;;;18.00;96.10;;;;;;5084362;28;20462;-70
2023/05/25 04:49:07;;;;;;;1999.90;999.90;;;18.00;96.10;;;;;;5084652;28;20043;-71
2023/05/25 04:51:35;;;;;;;1999.90;999.90;;;18.00;95.80;;;;;;5090883;28;20535;-73
2023/05/25 04:54:03;;;;;;;1999.90;999.90;;;18.10;95.70;;;;;;5082310;28;20036;-70
2023/05/25 04:56:30;;;;;;;1999.90;999.90;;;18.10;96.00;;;;;;5080895;28;20405;-70
2023/05/25 04:58:57;;;;;;;1999.90;999.90;;;18.00;95.90;;;;;;5093601;28;20073;-71
2023/05/25 05:01:26;;;;;;;1999.90;999.90;;;18.00;96.10;;;;;;5091526;28;20056;-73
2023/05/25 05:03:53;;;;;;;1999.90;999.90;;;17.90;96.60;;;;;;5089880;28;20371;-70
2023/05/25 05:06:20;;;;;;;1999.90;999.90;;;17.90;97.30;;;;;;5099157;28;20110;-72
2023/05/25 05:08:48;;;;;;;1999.90;999.90;;;17.90;97.60;;;;;;5088357;28;20124;-74
2023/05/25 05:11:15;;;;;;;1999.90;999.90;;;17.80;97.90;;;;;;5098719;28;20024;-71
2023/05/25 05:13:42;;;;;;;1999.90;999.90;;;17.70;98.10;;;;;;5094975;28;20413;-73
2023/05/25 05:16:10;;;;;;;1999.90;999.90;;;17.70;98.40;;;;;;5095163;28;20055;-75
2023/05/25 05:18:37;;;;;;;1999.90;999.90;;;17.70;98.70;;;;;;5084949;28;20118;-73
2023/05/25 05:21:04;;;;;;;1999.90;999.90;;;17.70;98.90;;;;;;5094957;28;20078;-71
2023/05/25 05:23:33;;;;;;;1999.90;999.90;;;17.70;98.90;;;;;;5089334;28;20028;-71
2023/05/25 05:26:00;;;;;;;1999.90;999.90;;;17.70;98.90;;;;;;5090168;28;20117;-72
2023/05/25 05:28:28;;;;;;;1999.90;999.90;;;17.70;99.00;;;;;;5092113;28;20020;-73
2023/05/25 05:30:56;;;;;;;1999.90;999.90;;;17.80;98.90;;;;;;5091151;28;20486;-71
2023/05/25 05:33:24;;;;;;;1999.90;999.90;;;17.90;98.60;;;;;;5086566;28;20016;-70
2023/05/25 05:35:51;;;;;;;1999.90;999.90;;;17.90;98.50;;;;;;5090443;28;20078;-72
2023/05/25 05:38:18;;;;;;;1999.90;999.90;;;17.90;98.60;;;;;;5085488;28;20113;-72
2023/05/25 05:40:46;;;;;;;1999.90;999.90;;;17.90;98.80;;;;;;5091384;28;20378;-73
2023/05/25 05:43:14;;;;;;;1999.90;999.90;;;18.00;98.70;;;;;;5092266;28;20027;-73
2023/05/25 05:45:42;;;;;;;1999.90;999.90;;;17.90;98.60;;;;;;5077676;28;20020;-73
2023/05/25 05:48:09;;;;;;;1999.90;999.90;;;17.90;98.40;;;;;;5095800;28;20044;-72
2023/05/25 05:50:38;;;;;;;1999.90;999.90;;;18.00;98.00;;;;;;5086900;28;20494;-71
2023/05/25 05:53:08;;;;;;;1999.90;999.90;;;18.00;97.50;;;;;;5086914;28;20096;-72
2023/05/25 05:55:36;;;;;;;1999.90;999.90;;;18.10;97.10;;;;;;5080635;28;20046;-72
2023/05/25 05:58:03;;;;;;;1999.90;999.90;;;18.10;96.80;;;;;;5081720;28;20051;-72
2023/05/25 06:00:31;;;;;;;1999.90;999.90;;;18.10;96.90;;;;;;5086578;28;20024;-75
2023/05/25 06:02:59;;;;;;;1999.90;999.90;;;18.00;96.80;;;;;;5096363;28;20043;-75
2023/05/25 06:05:26;;;;;;;1999.90;999.90;;;17.90;96.90;;;;;;5083960;28;20110;-72
2023/05/25 06:07:53;;;;;;;1999.90;999.90;;;17.80;96.90;;;;;;5086787;28;20471;-73
2023/05/25 06:10:21;;;;;;;1999.90;999.90;;;17.70;96.80;;;;;;5090219;28;20088;-72
2023/05/25 06:12:48;;;;;;;1999.90;999.90;;;17.60;97.00;;;;;;5084714;28;20491;-71
2023/05/25 06:15:16;;;;;;;1999.90;999.90;;;17.50;97.00;;;;;;5084770;28;20073;-73
2023/05/25 06:17:45;;;;;;;1999.90;999.90;;;17.40;97.20;;;;;;5088309;28;20028;-71
2023/05/25 06:20:13;;;;;;;1999.90;999.90;;;17.20;97.30;;;;;;5080578;28;20111;-71
2023/05/25 06:22:41;;;;;;;1999.90;999.90;;;17.20;97.30;;;;;;5079874;28;20032;-71
2023/05/25 06:25:09;;;;;;;1999.90;999.90;;;17.10;97.40;;;;;;5080252;28;20099;-72
2023/05/25 06:27:37;;;;;;;1999.90;999.90;;;17.10;97.70;;;;;;5077972;28;21165;-72
2023/05/25 06:30:05;;;;;;;1999.90;999.90;;;17.10;97.80;;;;;;5072793;28;20021;-71
2023/05/25 06:32:32;;;;;;;1999.90;999.90;;;17.00;98.10;;;;;;5086691;28;20063;-72
2023/05/25 06:34:59;;;;;;;1999.90;999.90;;;16.90;98.30;;;;;;5078732;28;20071;-71
2023/05/25 06:37:33;;;;;;;1999.90;999.90;;;16.90;98.80;;;;;;5088177;28;20038;-71
2023/05/25 06:40:01;;;;;;;1999.90;999.90;;;16.80;98.60;;;;;;5089354;28;20478;-71
2023/05/25 06:42:30;;;;;;;1999.90;999.90;;;16.70;98.40;;;;;;5077130;28;20098;-71
2023/05/25 06:44:57;;;;;;;1999.90;999.90;;;16.70;98.40;;;;;;5084051;28;20155;-69
2023/05/25 06:47:25;;;;;;;1999.90;999.90;;;16.70;98.30;;;;;;5090586;28;20069;-70
2023/05/25 06:49:53;;;;;;;1999.90;999.90;;;16.70;98.20;;;;;;5062325;28;20330;-70
2023/05/25 06:52:20;;;;;;;1999.90;999.90;;;16.70;97.90;;;;;;5094249;28;20027;-71
2023/05/25 06:54:47;;;;;;;1999.90;999.90;;;16.60;97.90;;;;;;5083981;28;20502;-72
2023/05/25 06:57:15;;;;;;;1999.90;999.90;;;16.70;97.80;;;;;;5093322;28;20036;-70
2023/05/25 06:59:43;;;;;;;1999.90;999.90;;;16.70;97.90;;;;;;5079258;28;20474;-71
2023/05/25 07:02:10;;;;;;;1999.90;999.90;;;16.60;97.90;;;;;;5090095;28;20350;-71
2023/05/25 07:04:38;;;;;;;1999.90;999.90;;;16.60;97.90;;;;;;5088472;28;20059;-71
2023/05/25 07:07:05;;;;;;;1999.90;999.90;;;16.50;98.00;;;;;;5086419;28;20081;-71
2023/05/25 07:09:33;;;;;;;1999.90;999.90;;;16.50;98.30;;;;;;5086724;28;20089;-71
2023/05/25 07:12:01;;;;;;;1999.90;999.90;;;16.40;98.50;;;;;;5083339;28;20024;-71
2023/05/25 07:14:28;;;;;;;1999.90;999.90;;;16.30;98.00;;;;;;5083644;28;20366;-71
2023/05/25 07:16:56;;;;;;;1999.90;999.90;;;16.40;97.80;;;;;;5085886;28;20052;-71
2023/05/25 07:19:23;;;;;;;1999.90;999.90;;;16.40;97.40;;;;;;5090483;28;20122;-73
2023/05/25 07:21:51;;;;;;;1999.90;999.90;;;16.50;97.40;;;;;;5088762;28;20466;-71
2023/05/25 07:24:18;;;;;;;1999.90;999.90;;;16.40;97.00;;;;;;5086348;28;20065;-72
2023/05/25 07:26:49;;;;;;;1999.90;999.90;;;16.40;96.90;;;;;;5086558;28;20020;-71
2023/05/25 07:29:17;;;;;;;1999.90;999.90;;;16.30;96.80;;;;;;5079552;28;20029;-71
2023/05/25 07:31:44;;;;;;;1999.90;999.90;;;16.30;96.80;;;;;;5084901;28;20020;-70
2023/05/25 07:34:11;;;;;;;1999.90;999.90;;;16.20;96.90;;;;;;5079249;28;20122;-70
2023/05/25 07:36:39;;;;;;;1999.90;999.90;;;16.10;96.80;;;;;;5066479;28;20082;-71
2023/05/25 07:39:07;;;;;;;1999.90;999.90;;;16.00;96.80;;;;;;5090665;28;20103;-72
2023/05/25 07:41:34;;;;;;;1999.90;999.90;;;15.90;96.20;;;;;;5083962;28;20390;-72
2023/05/25 07:44:02;;;;;;;1999.90;999.90;;;15.80;95.10;;;;;;5087795;28;20031;-72
2023/05/25 07:46:29;;;;;;;1999.90;999.90;;;15.90;94.60;;;;;;5080215;28;20028;-72
2023/05/25 07:48:58;;;;;;;1999.90;999.90;;;15.90;93.70;;;;;;5075383;28;20302;-72
2023/05/25 07:51:27;;;;;;;1999.90;999.90;;;15.90;93.20;;;;;;5087472;28;20106;-72
2023/05/25 07:53:55;;;;;;;1999.90;999.90;;;16.00;92.90;;;;;;5092749;28;20301;-73
2023/05/25 07:56:24;;;;;;;1999.90;999.90;;;16.00;92.90;;;;;;5089666;28;20099;-72
2023/05/25 07:58:51;;;;;;;1999.90;999.90;;;16.00;92.90;;;;;;5082043;28;20024;-73
2023/05/25 08:01:18;;;;;;;1999.90;999.90;;;15.90;93.00;;;;;;5092319;28;20127;-73
2023/05/25 08:03:46;;;;;;;1999.90;999.90;;;15.80;93.10;;;;;;5084065;28;20513;-73
2023/05/25 08:06:14;;;;;;;1999.90;999.90;;;15.80;93.60;;;;;;5090202;28;20039;-71
2023/05/25 08:08:43;;;;;;;1999.90;999.90;;;15.70;93.70;;;;;;5088128;28;20025;-72
2023/05/25 08:11:11;;;;;;;1999.90;999.90;;;15.60;93.80;;;;;;5088101;28;20036;-70
2023/05/25 08:13:39;;;;;;;1999.90;999.90;;;15.50;94.00;;;;;;5085816;28;20028;-71
2023/05/25 08:16:07;;;;;;;1999.90;999.90;;;15.40;94.40;;;;;;5095922;28;20478;-72
2023/05/25 08:18:35;;;;;;;1999.90;999.90;;;15.30;94.90;;;;;;5088650;28;20991;-71
2023/05/25 08:21:02;;;;;;;1999.90;999.90;;;15.20;95.10;;;;;;5085805;28;20650;-70
2023/05/25 08:23:30;;;;;;;1999.90;999.90;;;15.10;95.10;;;;;;5094375;28;20062;-72
2023/05/25 08:25:58;;;;;;;1999.90;999.90;;;15.10;95.40;;;;;;5087738;28;20033;-73
2023/05/25 08:28:25;;;;;;;1999.90;999.90;;;15.00;95.40;;;;;;5095115;28;20055;-71
2023/05/25 08:30:52;;;;;;;1999.90;999.90;;;14.90;95.50;;;;;;5091424;28;20504;-71
2023/05/25 08:33:20;;;;;;;1999.90;999.90;;;14.90;95.70;;;;;;5088917;28;20475;-72
2023/05/25 08:35:49;;;;;;;1999.90;999.90;;;14.90;95.80;;;;;;5095144;28;20036;-72
2023/05/25 08:38:16;;;;;;;1999.90;999.90;;;14.80;96.00;;;;;;5086108;28;20136;-70
2023/05/25 08:40:46;;;;;;;1999.90;999.90;;;14.80;96.20;;;;;;5067027;28;20030;-71
2023/05/25 08:43:13;;;;;;;1999.90;999.90;;;14.70;96.30;;;;;;5090717;28;20028;-72
2023/05/25 08:45:42;;;;;;;1999.90;999.90;;;14.60;96.40;;;;;;5085554;28;20034;-72
2023/05/25 08:48:14;;;;;;;1999.90;999.90;;;14.60;96.60;;;;;;5095291;28;20046;-72
2023/05/25 08:50:43;;;;;;;1999.90;999.90;;;14.50;96.60;;;;;;5089669;28;20030;-71
2023/05/25 08:53:11;;;;;;;1999.90;999.90;;;14.50;96.00;;;;;;5078747;28;20027;-71
2023/05/25 08:55:41;;;;;;;1999.90;999.90;;;14.50;95.80;;;;;;5081410;28;20044;-70
2023/05/25 08:58:16;;;;;;;1999.90;999.90;;;14.40;95.40;;;;;;5088033;28;20080;-71
2023/05/25 09:00:57;;;;;;;1999.90;999.90;;;14.40;95.50;;;;;;5085190;28;20024;-72
2023/05/25 09:03:24;;;;;;;1999.90;999.90;;;14.40;94.30;;;;;;5092195;28;20039;-72
2023/05/25 09:05:54;;;;;;;1999.90;999.90;;;14.50;94.10;;;;;;5093309;28;20039;-72
2023/05/25 09:08:22;;;;;;;1999.90;999.90;;;14.60;93.70;;;;;;5089506;28;20046;-71
2023/05/25 09:10:54;;;;;;;1999.90;999.90;;;14.80;93.00;;;;;;5087825;28;20038;-72
2023/05/25 09:13:22;;;;;;;1999.90;999.90;;;15.00;92.80;;;;;;5094794;28;20032;-72
2023/05/25 09:15:50;;;;;;;1999.90;999.90;;;15.00;93.30;;;;;;5084319;28;20037;-71
2023/05/25 09:18:18;;;;;;;1999.90;999.90;;;14.90;93.60;;;;;;5092318;28;20043;-72
2023/05/25 09:20:46;;;;;;;1999.90;999.90;;;14.90;92.90;;;;;;5084363;28;20025;-72
2023/05/25 09:23:14;;;;;;;1999.90;999.90;;;14.90;92.20;;;;;;5063261;28;20044;-72
2023/05/25 09:25:44;;;;;;;1999.90;999.90;;;14.90;92.40;;;;;;5077045;28;20024;-72
2023/05/25 09:28:11;;;;;;;1999.90;999.90;;;14.90;92.20;;;;;;5091107;28;20019;-71
2023/05/25 09:30:38;;;;;;;1999.90;999.90;;;15.00;91.70;;;;;;5091612;28;20027;-72
2023/05/25 09:33:12;;;;;;;1999.90;999.90;;;15.10;91.40;;;;;;5070393;28;20023;-73
2023/05/25 09:35:40;;;;;;;1999.90;999.90;;;15.30;91.40;;;;;;5080021;28;20047;-71
2023/05/25 09:38:07;;;;;;;1999.90;999.90;;;15.40;91.20;;;;;;5093080;28;20040;-72
2023/05/25 09:40:37;;;;;;;1999.90;999.90;;;15.70;90.90;;;;;;5079035;28;20052;-71
2023/05/25 09:43:04;;;;;;;1999.90;999.90;;;15.70;91.10;;;;;;5092592;28;20036;-72
2023/05/25 09:45:32;;;;;;;1999.90;999.90;;;15.80;90.90;;;;;;5081142;28;20028;-72
2023/05/25 09:48:00;;;;;;;1999.90;999.90;;;15.90;90.70;;;;;;5089573;28;20028;-72
2023/05/25 09:50:28;;;;;;;1999.90;999.90;;;16.00;90.60;;;;;;5087724;28;20035;-71
2023/05/25 09:53:02;;;;;;;1999.90;999.90;;;16.20;90.80;;;;;;5089437;28;20034;-71
2023/05/25 09:55:30;;;;;;;1999.90;999.90;;;16.10;90.70;;;;;;5089578;28;20040;-72
2023/05/25 09:57:57;;;;;;;1999.90;999.90;;;16.10;90.60;;;;;;5086835;28;20035;-71
2023/05/25 10:00:26;;;;;;;1999.90;999.90;;;16.10;90.50;;;;;;5088262;28;20028;-73
2023/05/25 10:02:53;;;;;;;1999.90;999.90;;;16.30;90.50;;;;;;5088147;28;20035;-73
2023/05/25 10:05:20;;;;;;;1999.90;999.90;;;16.30;90.60;;;;;;5082147;28;20112;-73
2023/05/25 10:07:52;;;;;;;1999.90;999.90;;;16.40;90.50;;;;;;5085574;28;20024;-72
2023/05/25 10:10:19;;;;;;;1999.90;999.90;;;16.40;90.50;;;;;;5087304;28;20089;-73
2023/05/25 10:12:50;;;;;;;1999.90;999.90;;;16.40;90.60;;;;;;5087372;28;20028;-71
2023/05/25 10:15:19;;;;;;;1999.90;999.90;;;16.40;90.70;;;;;;5082672;28;20040;-71
2023/05/25 10:17:57;;;;;;;1999.90;999.90;;;16.40;90.70;;;;;;5090241;28;20054;-71
2023/05/25 10:20:25;;;;;;;1999.90;999.90;;;16.40;90.60;;;;;;5090697;28;20385;-72
2023/05/25 10:23:05;;;;;;;1999.90;999.90;;;16.30;90.60;;;;;;5095026;28;20061;-71
2023/05/25 10:25:39;;;;;;;1999.90;999.90;;;16.30;90.60;;;;;;5089811;28;20036;-71
2023/05/25 10:28:28;;;;;;;1999.90;999.90;;;16.30;90.80;;;;;;5083432;28;20119;-72
2023/05/25 10:31:00;;;;;;;1999.90;999.90;;;16.20;90.80;;;;;;5090477;28;20042;-72
2023/05/25 10:33:29;;;;;;;1999.90;999.90;;;16.20;90.80;;;;;;5091725;28;20031;-72
2023/05/25 10:35:57;;;;;;;1999.90;999.90;;;16.20;90.50;;;;;;5095617;28;20031;-73
2023/05/25 10:38:27;;;;;;;1999.90;999.90;;;16.20;90.50;;;;;;5089445;28;20111;-72
2023/05/25 10:40:58;;;;;;;1999.90;999.90;;;16.20;90.50;;;;;;5089688;28;20057;-72
2023/05/25 10:43:27;;;;;;;1999.90;999.90;;;16.20;90.40;;;;;;5088689;28;20022;-72
2023/05/25 10:45:56;;;;;;;1999.90;999.90;;;16.20;90.40;;;;;;5066623;28;20051;-70
2023/05/25 10:48:24;;;;;;;1999.90;999.90;;;16.20;90.50;;;;;;5085882;28;20031;-71
2023/05/25 10:50:51;;;;;;;1999.90;999.90;;;16.10;90.40;;;;;;5085397;28;20020;-71
2023/05/25 10:53:21;;;;;;;1999.90;999.90;;;16.20;90.40;;;;;;5097502;28;20036;-70
2023/05/25 10:55:54;;;;;;;1999.90;999.90;;;16.20;90.50;;;;;;5095513;28;20085;-71
2023/05/25 10:58:26;;;;;;;1999.90;999.90;;;16.10;90.40;;;;;;5089874;28;20044;-71
2023/05/25 11:01:13;;;;;;;1999.90;999.90;;;16.10;90.30;;;;;;5093883;28;20022;-71
2023/05/25 11:04:11;;;;;;;1999.90;999.90;;;16.20;90.10;;;;;;5092571;28;20049;-72
2023/05/25 11:06:43;;;;;;;1999.90;999.90;;;16.20;90.00;;;;;;5078685;28;20019;-73
2023/05/25 11:09:32;;;;;;;1999.90;999.90;;;16.30;89.90;;;;;;5082411;28;20085;-71
2023/05/25 11:12:02;;;;;;;1999.90;999.90;;;16.20;90.00;;;;;;5097831;28;20428;-71
2023/05/25 11:14:42;;;;;;;1999.90;999.90;;;16.20;89.90;;;;;;5069729;28;20032;-74
2023/05/25 11:17:23;;;;;;;1999.90;999.90;;;16.20;89.40;;;;;;5085960;28;20059;-72
2023/05/25 11:19:53;;;;;;;1999.90;999.90;;;16.20;89.30;;;;;;5085910;28;20417;-71
2023/05/25 11:22:38;;;;;;;1999.90;999.90;;;16.20;88.80;;;;;;5078992;28;20027;-70
2023/05/25 11:25:38;;;;;;;1999.90;999.90;;;16.20;88.70;;;;;;5084052;28;20588;-71
2023/05/25 11:28:10;;;;;;;1999.90;999.90;;;16.30;88.80;;;;;;5083041;28;20046;-72
2023/05/25 11:30:43;;;;;;;1999.90;999.90;;;16.30;88.50;;;;;;5083336;28;20028;-70
2023/05/25 11:33:11;;;;;;;1999.90;999.90;;;16.20;88.10;;;;;;5085163;28;20039;-70
2023/05/25 11:35:38;;;;;;;1999.90;999.90;;;16.10;87.90;;;;;;5083271;28;20498;-70
2023/05/25 11:38:07;;;;;;;1999.90;999.90;;;16.20;87.80;;;;;;5088849;28;20362;-70
2023/05/25 11:40:35;;;;;;;1999.90;999.90;;;16.30;87.70;;;;;;5087366;28;20024;-69
2023/05/25 11:43:02;;;;;;;1999.90;999.90;;;16.30;87.70;;;;;;5088899;28;20043;-70
2023/05/25 11:45:36;;;;;;;1999.90;999.90;;;16.30;87.50;;;;;;5086445;28;20097;-71
2023/05/25 11:48:12;;;;;;;1999.90;999.90;;;16.30;87.50;;;;;;5078727;28;20035;-69
2023/05/25 11:50:46;;;;;;;1999.90;999.90;;;16.30;87.20;;;;;;5079149;28;20029;-70
2023/05/25 11:54:24;;;;;;;1999.90;999.90;;;16.30;87.60;;;;;;5086691;28;20602;-69
2023/05/25 11:56:52;;;;;;;1999.90;999.90;;;16.30;87.90;;;;;;5021032;28;20049;-69
2023/05/25 11:59:20;;;;;;;1999.90;999.90;;;16.30;88.20;;;;;;5023543;28;20033;-70
2023/05/25 12:01:58;;;;;;;1999.90;999.90;;;16.30;88.40;;;;;;5065263;28;20040;-69
2023/05/25 12:04:26;;;;;;;1999.90;999.90;;;16.30;88.50;;;;;;5092201;28;20027;-70
2023/05/25 12:07:25;;;;;;;1999.90;999.90;;;16.20;88.70;;;;;;5088963;28;20032;-69
2023/05/25 12:10:05;;;;;;;1999.90;999.90;;;16.20;89.60;;;;;;5078615;28;20060;-69